Time;durP1;ratioP1;P1;durP2;ratioP2;P2;SDS_P1;SDS_P2;PMS_P1;PMS_P2;Temp;Humidity;BMP_temperature;BMP_pressure;BME280_temperature;BME280_humidity;BME280_pressure;Samples;Min_cycle;Max_cycle;Signal;HPM_P1;HPM_P2
2021/10/21 00:02:07;;;;;;;1999.90;999.90;;;;;;;;;;4914412;28;20059;-68
2021/10/21 00:04:52;;;;;;;1999.90;999.90;;;;;;;;;;4914209;28;20131;-68
2021/10/21 00:07:37;;;;;;;1999.90;999.90;;;;;;;;;;4914208;28;20056;-68
2021/10/21 00:10:23;;;;;;;1999.90;999.90;;;;;;;;;;4914118;28;20503;-68
2021/10/21 00:13:08;;;;;;;1999.90;999.90;;;;;;;;;;4912930;28;20056;-68
2021/10/21 00:15:53;;;;;;;1999.90;999.90;;;;;;;;;;4914290;28;20060;-68
2021/10/21 00:18:38;;;;;;;1999.90;999.90;;;;;;;;;;4913997;28;20143;-68
2021/10/21 00:21:24;;;;;;;1999.90;999.90;;;;;;;;;;4912805;28;20064;-68
2021/10/21 00:24:09;;;;;;;1999.90;999.90;;;;;;;;;;4913925;28;20457;-67
2021/10/21 00:26:54;;;;;;;1999.90;999.90;;;;;;;;;;4913944;28;20056;-68
2021/10/21 00:29:39;;;;;;;1999.90;999.90;;;;;;;;;;4914138;28;20123;-68
2021/10/21 00:32:25;;;;;;;1999.90;999.90;;;;;;;;;;4914088;28;20132;-68
2021/10/21 00:35:10;;;;;;;1999.90;999.90;;;;;;;;;;4913666;28;20060;-68
2021/10/21 00:37:55;;;;;;;1999.90;999.90;;;;;;;;;;4914005;28;20056;-68
2021/10/21 00:40:41;;;;;;;1999.90;999.90;;;;;;;;;;4913832;28;20052;-68
2021/10/21 00:43:26;;;;;;;1999.90;999.90;;;;;;;;;;4913647;29;20095;-69
2021/10/21 00:46:12;;;;;;;1999.90;999.90;;;;;;;;;;4913926;28;20103;-68
2021/10/21 00:48:57;;;;;;;1999.90;999.90;;;;;;;;;;4913843;28;20052;-68
2021/10/21 00:51:42;;;;;;;1999.90;999.90;;;;;;;;;;4913594;28;20052;-68
2021/10/21 00:54:27;;;;;;;1999.90;999.90;;;;;;;;;;4912616;28;20048;-68
2021/10/21 00:57:13;;;;;;;1999.90;999.90;;;;;;;;;;4913634;28;20060;-68
2021/10/21 00:59:58;;;;;;;1999.90;999.90;;;;;;;;;;4912605;28;20122;-67
2021/10/21 01:02:43;;;;;;;1999.90;999.90;;;;;;;;;;4912488;28;20422;-68
2021/10/21 01:05:28;;;;;;;1999.90;999.90;;;;;;;;;;4913269;29;20515;-68
2021/10/21 01:08:13;;;;;;;1999.90;999.90;;;;;;;;;;4913401;28;20056;-68
2021/10/21 01:10:59;;;;;;;62.25;40.40;;;;;;;;;;4913257;28;20056;-68
2021/10/21 01:13:44;;;;;;;363.02;344.48;;;;;;;;;;4913217;28;20127;-68
2021/10/21 01:16:29;;;;;;;1999.90;999.90;;;;;;;;;;4913318;28;20060;-68
2021/10/21 01:19:18;;;;;;;1999.90;999.90;;;;;;;;;;4913234;28;20052;-69
2021/10/21 01:22:03;;;;;;;1999.90;999.90;;;;;;;;;;4913436;28;20056;-68
2021/10/21 01:24:54;;;;;;;1999.90;999.90;;;;;;;;;;4912997;28;20131;-68
2021/10/21 01:27:39;;;;;;;1999.90;999.90;;;;;;;;;;4912352;28;20067;-68
2021/10/21 01:30:25;;;;;;;73.03;67.85;;;;;;;;;;4913176;28;20048;-69
2021/10/21 01:33:11;;;;;;;40.95;36.88;;;;;;;;;;4913208;28;20071;-68
2021/10/21 01:35:56;;;;;;;51.38;47.13;;;;;;;;;;4913071;28;20056;-69
2021/10/21 01:38:42;;;;;;;1999.90;999.90;;;;;;;;;;4913099;28;20442;-68
2021/10/21 01:41:27;;;;;;;1999.90;999.90;;;;;;;;;;4913075;28;20064;-68
2021/10/21 01:44:13;;;;;;;1999.90;999.90;;;;;;;;;;4912712;28;20056;-67
2021/10/21 01:46:58;;;;;;;1999.90;999.90;;;;;;;;;;4912965;28;20131;-68
2021/10/21 01:49:44;;;;;;;1999.90;999.90;;;;;;;;;;4912937;28;20131;-67
2021/10/21 01:52:29;;;;;;;1999.90;999.90;;;;;;;;;;4912829;28;20056;-68
2021/10/21 01:55:15;;;;;;;1999.90;999.90;;;;;;;;;;4912798;28;20056;-67
2021/10/21 01:58:00;;;;;;;1999.90;999.90;;;;;;;;;;4912899;29;20064;-68
2021/10/21 02:00:45;;;;;;;1999.90;999.90;;;;;;;;;;4912743;28;20072;-68
2021/10/21 02:03:30;;;;;;;1999.90;999.90;;;;;;;;;;4912720;28;20504;-68
2021/10/21 02:06:17;;;;;;;1999.90;999.90;;;;;;;;;;4911501;28;20067;-68
2021/10/21 02:09:02;;;;;;;1999.90;999.90;;;;;;;;;;4912650;28;20056;-67
2021/10/21 02:11:47;;;;;;;1999.90;999.90;;;;;;;;;;4912635;28;20418;-68
2021/10/21 02:14:32;;;;;;;1999.90;999.90;;;;;;;;;;4915332;28;20151;-67
2021/10/21 02:17:22;;;;;;;1999.90;999.90;;;;;;;;;;4915918;28;20052;-68
2021/10/21 02:20:10;;;;;;;1999.90;999.90;;;;;;;;;;4915833;28;20048;-68
2021/10/21 02:22:55;;;;;;;1999.90;999.90;;;;;;;;;;4915946;28;20056;-68
2021/10/21 02:25:40;;;;;;;1999.90;999.90;;;;;;;;;;4915556;28;20052;-68
2021/10/21 02:28:26;;;;;;;80.47;76.45;;;;;;;;;;4915898;28;20060;-68
2021/10/21 02:31:11;;;;;;;6.43;5.93;;;;;;;;;;4915683;29;20087;-67
2021/10/21 02:33:56;;;;;;;394.10;34.00;;;;;;;;;;4915498;28;20052;-67
2021/10/21 02:36:42;;;;;;;2.03;0.60;;;;;;;;;;4915455;28;20554;-67
2021/10/21 02:39:30;;;;;;;1.75;0.70;;;;;;;;;;4915521;28;20528;-67
2021/10/21 02:42:16;;;;;;;1.73;0.40;;;;;;;;;;4913838;28;20056;-67
2021/10/21 02:45:01;;;;;;;2.53;0.50;;;;;;;;;;4914276;28;20450;-67
2021/10/21 02:47:46;;;;;;;1.98;0.40;;;;;;;;;;4914489;28;20140;-67
2021/10/21 02:50:31;;;;;;;87.30;82.07;;;;;;;;;;4960372;22;20040;-68
2021/10/21 02:53:17;;;;;;;12.48;11.82;;;;;;;;;;4933505;29;20056;-68
2021/10/21 02:56:02;;;;;;;8.18;2.80;;;;;;;;;;4934492;29;20492;-68
2021/10/21 02:58:47;;;;;;;16.08;13.05;;;;;;;;;;4933050;29;20056;-68
2021/10/21 03:01:33;;;;;;;2.08;1.05;;;;;;;;;;4932950;29;20063;-68
2021/10/21 03:04:18;;;;;;;3.78;0.50;;;;;;;;;;4932747;29;20063;-69
2021/10/21 03:07:03;;;;;;;4.32;0.52;;;;;;;;;;4932874;29;20126;-68
2021/10/21 03:09:48;;;;;;;5.38;3.92;;;;;;;;;;4933315;29;20143;-68
2021/10/21 03:12:34;;;;;;;6.35;1.33;;;;;;;;;;4932976;29;20064;-69
2021/10/21 03:15:19;;;;;;;21.88;14.98;;;;;;;;;;4932611;29;20059;-68
2021/10/21 03:18:04;;;;;;;5.80;1.02;;;;;;;;;;4934008;29;20043;-68
2021/10/21 03:20:49;;;;;;;7.90;0.93;;;;;;;;;;4932686;29;20173;-69
2021/10/21 03:23:35;;;;;;;3.60;0.60;;;;;;;;;;4932500;29;20130;-69
2021/10/21 03:26:20;;;;;;;5.43;1.10;;;;;;;;;;4931849;29;20458;-68
2021/10/21 03:29:05;;;;;;;4.93;0.60;;;;;;;;;;4932761;29;20134;-68
2021/10/21 03:31:50;;;;;;;2.38;0.50;;;;;;;;;;4932846;29;20059;-68
2021/10/21 03:34:36;;;;;;;18.08;17.17;;;;;;;;;;4932218;29;20056;-68
2021/10/21 03:37:21;;;;;;;42.15;39.78;;;;;;;;;;4919044;29;20056;-68
2021/10/21 03:40:06;;;;;;;4.80;2.30;;;;;;;;;;4933601;29;20514;-68
2021/10/21 03:42:51;;;;;;;3.67;1.08;;;;;;;;;;4933589;29;20557;-68
2021/10/21 03:45:37;;;;;;;85.15;57.13;;;;;;;;;;4932101;29;20068;-68
2021/10/21 03:48:22;;;;;;;14.07;12.80;;;;;;;;;;4933589;29;20130;-68
2021/10/21 03:51:07;;;;;;;2.28;0.60;;;;;;;;;;4931953;29;20056;-69
2021/10/21 03:53:52;;;;;;;6.20;0.57;;;;;;;;;;4933387;29;20127;-69
2021/10/21 03:56:37;;;;;;;3.75;0.82;;;;;;;;;;4932237;29;20056;-69
2021/10/21 03:59:23;;;;;;;3.05;0.70;;;;;;;;;;4932184;29;20123;-69
2021/10/21 04:02:09;;;;;;;5.88;0.80;;;;;;;;;;4933600;29;20127;-69
2021/10/21 04:04:54;;;;;;;5.07;4.53;;;;;;;;;;4932068;29;20070;-69
2021/10/21 04:07:39;;;;;;;128.30;27.58;;;;;;;;;;4932026;29;20067;-68
2021/10/21 04:10:24;;;;;;;50.53;28.52;;;;;;;;;;4932134;29;20109;-68
2021/10/21 04:13:10;;;;;;;8.02;7.22;;;;;;;;;;4932446;29;20395;-68
2021/10/21 04:15:55;;;;;;;43.75;19.75;;;;;;;;;;4931927;29;20557;-68
2021/10/21 04:18:41;;;;;;;5.07;4.32;;;;;;;;;;4920824;29;20052;-68
2021/10/21 04:21:26;;;;;;;3.50;1.02;;;;;;;;;;4912079;29;20403;-68
2021/10/21 04:24:11;;;;;;;3.50;0.85;;;;;;;;;;4912313;29;20060;-68
2021/10/21 04:26:56;;;;;;;6.53;1.08;;;;;;;;;;4912864;29;20243;-68
2021/10/21 04:29:41;;;;;;;4.70;1.10;;;;;;;;;;4912744;29;20095;-68
2021/10/21 04:32:26;;;;;;;4.55;1.02;;;;;;;;;;4899502;29;20060;-69
2021/10/21 04:35:11;;;;;;;7.28;1.40;;;;;;;;;;4913567;29;20414;-68
2021/10/21 04:37:57;;;;;;;13.90;1.85;;;;;;;;;;4912586;29;20531;-68
2021/10/21 04:40:42;;;;;;;3.80;1.10;;;;;;;;;;4913857;29;20052;-68
2021/10/21 04:43:27;;;;;;;3.72;0.50;;;;;;;;;;4913544;29;20056;-68
2021/10/21 04:46:13;;;;;;;3.40;0.20;;;;;;;;;;4912571;29;20060;-68
2021/10/21 04:48:57;;;;;;;2.17;0.20;;;;;;;;;;4912466;29;20060;-68
2021/10/21 04:51:42;;;;;;;1.65;0.20;;;;;;;;;;4912185;29;20052;-68
2021/10/21 04:54:28;;;;;;;3.65;0.35;;;;;;;;;;4912496;29;20154;-68
2021/10/21 04:57:13;;;;;;;0.60;0.20;;;;;;;;;;4912362;29;20163;-68
2021/10/21 04:59:58;;;;;;;3.42;0.43;;;;;;;;;;4899152;29;20088;-68
2021/10/21 05:02:44;;;;;;;2.67;0.40;;;;;;;;;;4913546;29;20060;-68
2021/10/21 05:05:29;;;;;;;1.55;0.50;;;;;;;;;;4928612;29;20135;-67
2021/10/21 05:08:14;;;;;;;3.13;0.40;;;;;;;;;;4917729;29;20510;-68
2021/10/21 05:10:59;;;;;;;2.92;0.60;;;;;;;;;;4930905;29;20126;-68
2021/10/21 05:13:44;;;;;;;7.40;1.27;;;;;;;;;;4930873;29;20056;-68
2021/10/21 05:16:30;;;;;;;3.10;0.70;;;;;;;;;;4917806;28;20087;-69
2021/10/21 05:19:15;;;;;;;4.82;0.47;;;;;;;;;;4931006;29;20056;-69
2021/10/21 05:22:00;;;;;;;1.83;0.30;;;;;;;;;;4931160;29;20055;-69
2021/10/21 05:24:46;;;;;;;3.35;0.60;;;;;;;;;;4917522;28;20060;-69
2021/10/21 05:27:31;;;;;;;3.92;0.80;;;;;;;;;;4930958;29;20089;-68
2021/10/21 05:30:16;;;;;;;5.93;0.63;;;;;;;;;;4931114;29;20052;-68
2021/10/21 05:33:02;;;;;;;4.72;0.68;;;;;;;;;;4944511;29;20128;-68
2021/10/21 05:35:47;;;;;;;2.17;0.50;;;;;;;;;;4930599;29;20063;-69
2021/10/21 05:38:32;;;;;;;5.53;0.80;;;;;;;;;;4932044;29;20131;-69
2021/10/21 05:41:17;;;;;;;5.35;0.63;;;;;;;;;;4930902;29;20056;-69
2021/10/21 05:44:02;;;;;;;3.38;0.70;;;;;;;;;;4930510;29;20063;-69
2021/10/21 05:46:49;;;;;;;3.63;0.40;;;;;;;;;;4931949;29;20494;-68
2021/10/21 05:49:34;;;;;;;4.90;1.33;;;;;;;;;;4933616;29;20060;-68
2021/10/21 05:52:24;;;;;;;4.68;0.60;;;;;;;;;;4933983;29;20056;-68
2021/10/21 05:55:09;;;;;;;3.50;0.40;;;;;;;;;;4921353;28;20059;-69
2021/10/21 05:57:54;;;;;;;1.55;0.40;;;;;;;;;;4935283;29;20095;-69
2021/10/21 06:00:40;;;;;;;1.75;0.70;;;;;;;;;;4933887;29;20127;-69
2021/10/21 06:03:26;;;;;;;0.77;0.40;;;;;;;;;;4933797;29;20059;-69
2021/10/21 06:06:12;;;;;;;2.42;0.38;;;;;;;;;;4933909;29;20130;-68
2021/10/21 06:08:57;;;;;;;1.77;0.28;;;;;;;;;;4933794;29;20067;-68
2021/10/21 06:11:42;;;;;;;2.03;0.47;;;;;;;;;;4935092;29;20127;-68
2021/10/21 06:14:31;;;;;;;3.10;0.30;;;;;;;;;;4934746;29;20055;-68
2021/10/21 06:17:16;;;;;;;6.32;0.77;;;;;;;;;;4933659;29;20059;-68
2021/10/21 06:20:01;;;;;;;6.15;0.68;;;;;;;;;;4933602;29;20063;-68
2021/10/21 06:22:46;;;;;;;3.70;0.65;;;;;;;;;;4935000;29;20056;-68
2021/10/21 06:25:32;;;;;;;5.60;0.60;;;;;;;;;;4933257;29;20506;-69
2021/10/21 06:28:18;;;;;;;3.80;0.60;;;;;;;;;;4933519;29;20056;-68
2021/10/21 06:31:03;;;;;;;7.82;1.67;;;;;;;;;;4933778;29;20052;-69
2021/10/21 06:33:49;;;;;;;8.48;1.08;;;;;;;;;;4933146;29;20509;-69
2021/10/21 06:36:35;;;;;;;6.38;1.13;;;;;;;;;;4933465;29;20068;-68
2021/10/21 06:39:20;;;;;;;5.60;0.98;;;;;;;;;;4934746;29;20056;-68
2021/10/21 06:42:05;;;;;;;7.72;1.23;;;;;;;;;;4933185;29;20060;-69
2021/10/21 06:44:51;;;;;;;13.60;1.33;;;;;;;;;;4933029;29;20060;-69
2021/10/21 06:47:36;;;;;;;7.28;1.60;;;;;;;;;;4933460;29;20060;-69
2021/10/21 06:50:21;;;;;;;13.60;1.75;;;;;;;;;;4933282;29;20063;-64
2021/10/21 06:53:06;;;;;;;8.25;1.27;;;;;;;;;;4934558;29;20461;-64
2021/10/21 06:55:51;;;;;;;16.67;1.73;;;;;;;;;;4934266;29;20506;-64
2021/10/21 06:58:37;;;;;;;13.63;1.75;;;;;;;;;;4934082;29;20060;-64
2021/10/21 07:01:22;;;;;;;10.70;1.40;;;;;;;;;;4934303;29;20048;-64
2021/10/21 07:04:07;;;;;;;12.32;1.92;;;;;;;;;;4934097;29;20056;-64
2021/10/21 07:06:52;;;;;;;11.05;2.20;;;;;;;;;;4934161;29;20052;-64
2021/10/21 07:09:38;;;;;;;9.57;1.83;;;;;;;;;;4934117;29;20406;-64
2021/10/21 07:12:23;;;;;;;8.43;1.63;;;;;;;;;;4934436;29;20056;-64
2021/10/21 07:15:09;;;;;;;11.25;1.40;;;;;;;;;;4933810;29;20051;-64
2021/10/21 07:17:54;;;;;;;12.57;1.45;;;;;;;;;;4934266;29;20056;-64
2021/10/21 07:20:39;;;;;;;12.98;1.65;;;;;;;;;;4933891;29;20569;-64
2021/10/21 07:23:24;;;;;;;8.80;1.92;;;;;;;;;;4933884;29;20135;-64
2021/10/21 07:26:10;;;;;;;12.55;1.38;;;;;;;;;;4933932;29;20052;-64
2021/10/21 07:28:55;;;;;;;9.05;1.88;;;;;;;;;;4933897;29;20502;-64
2021/10/21 07:31:40;;;;;;;12.75;1.92;;;;;;;;;;4933693;29;20055;-64
2021/10/21 07:34:26;;;;;;;8.57;2.15;;;;;;;;;;4933492;29;20513;-64
2021/10/21 07:37:11;;;;;;;11.25;1.42;;;;;;;;;;4933885;29;20422;-64
2021/10/21 07:39:56;;;;;;;9.23;1.92;;;;;;;;;;4933591;29;20510;-64
2021/10/21 07:42:42;;;;;;;12.07;1.55;;;;;;;;;;4933951;29;20441;-64
2021/10/21 07:45:27;;;;;;;8.98;1.13;;;;;;;;;;4933512;29;20060;-64
2021/10/21 07:48:12;;;;;;;10.88;2.40;;;;;;;;;;4933668;29;20122;-64
2021/10/21 07:50:58;;;;;;;8.80;1.88;;;;;;;;;;4933317;29;20071;-64
2021/10/21 07:53:43;;;;;;;9.85;1.70;;;;;;;;;;4933321;29;20047;-64
2021/10/21 07:56:28;;;;;;;12.07;1.45;;;;;;;;;;4933528;29;20052;-64
2021/10/21 07:59:14;;;;;;;12.68;1.40;;;;;;;;;;4933322;29;20118;-62
2021/10/21 08:01:59;;;;;;;14.25;2.58;;;;;;;;;;4933485;29;20059;-63
2021/10/21 08:04:44;;;;;;;7.72;1.33;;;;;;;;;;4933211;29;20060;-63
2021/10/21 08:07:32;;;;;;;9.93;1.67;;;;;;;;;;4933199;29;20055;-63
2021/10/21 08:10:18;;;;;;;10.00;1.45;;;;;;;;;;4932954;29;20067;-62
2021/10/21 08:13:03;;;;;;;10.93;1.45;;;;;;;;;;4933261;29;20052;-62
2021/10/21 08:15:50;;;;;;;8.13;1.33;;;;;;;;;;4932916;29;20055;-63
2021/10/21 08:18:35;;;;;;;8.52;1.15;;;;;;;;;;4933305;29;20055;-62
2021/10/21 08:21:20;;;;;;;15.82;1.75;;;;;;;;;;4933109;29;20043;-62
2021/10/21 08:24:06;;;;;;;11.43;1.23;;;;;;;;;;4932780;29;20130;-63
2021/10/21 08:26:52;;;;;;;9.20;1.33;;;;;;;;;;4933207;29;20055;-62
2021/10/21 08:29:37;;;;;;;10.52;1.88;;;;;;;;;;4933058;29;20063;-63
2021/10/21 08:32:22;;;;;;;12.18;2.30;;;;;;;;;;4932834;29;20056;-62
2021/10/21 08:35:11;;;;;;;9.27;0.98;;;;;;;;;;4932846;29;20056;-63
2021/10/21 08:37:58;;;;;;;7.10;1.02;;;;;;;;;;4932994;29;20059;-63
2021/10/21 08:40:43;;;;;;;7.88;1.40;;;;;;;;;;4932707;29;20056;-63
2021/10/21 08:43:28;;;;;;;8.77;1.27;;;;;;;;;;4932699;29;20426;-64
2021/10/21 08:46:14;;;;;;;8.27;1.05;;;;;;;;;;4932839;29;20055;-62
2021/10/21 08:49:01;;;;;;;8.52;0.85;;;;;;;;;;4932639;29;20056;-63
2021/10/21 08:51:46;;;;;;;6.93;0.80;;;;;;;;;;4932921;29;20060;-64
2021/10/21 08:54:32;;;;;;;8.50;1.02;;;;;;;;;;4932467;29;20052;-64
2021/10/21 08:57:19;;;;;;;14.40;1.55;;;;;;;;;;4932672;29;20055;-64
2021/10/21 09:00:05;;;;;;;8.25;1.23;;;;;;;;;;4932625;29;20052;-64
2021/10/21 09:05:48;;;;;;;10.32;1.23;;;;;;;;;;4932158;29;20060;-64
2021/10/21 09:08:34;;;;;;;7.13;0.93;;;;;;;;;;4932592;29;20047;-64
2021/10/21 09:11:22;;;;;;;6.30;1.35;;;;;;;;;;4931415;28;20506;-62
2021/10/21 09:14:08;;;;;;;6.20;0.65;;;;;;;;;;4931981;29;20126;-62
2021/10/21 09:16:59;;;;;;;9.23;1.52;;;;;;;;;;4932470;29;20055;-63
2021/10/21 09:19:46;;;;;;;5.35;0.88;;;;;;;;;;4932079;29;20059;-63
2021/10/21 09:22:31;;;;;;;7.70;1.10;;;;;;;;;;4925797;29;20044;-63
2021/10/21 09:25:21;;;;;;;11.68;1.30;;;;;;;;;;4923472;29;20538;-64
2021/10/21 09:28:21;;;;;;;10.73;1.10;;;;;;;;;;4922349;29;20467;-64
2021/10/21 09:31:08;;;;;;;8.93;1.10;;;;;;;;;;4924012;29;20056;-64
2021/10/21 09:33:56;;;;;;;7.10;1.08;;;;;;;;;;4915512;29;20052;-64
2021/10/21 09:36:41;;;;;;;6.53;1.48;;;;;;;;;;4913182;29;20422;-64
2021/10/21 09:39:27;;;;;;;4.97;0.90;;;;;;;;;;4913331;29;20055;-64
2021/10/21 09:42:13;;;;;;;9.88;1.00;;;;;;;;;;4913275;29;20060;-64
2021/10/21 09:45:28;;;;;;;8.15;0.75;;;;;;;;;;4912890;29;20088;-63
2021/10/21 09:48:13;;;;;;;4.10;0.70;;;;;;;;;;4918220;28;20052;-62
2021/10/21 09:50:58;;;;;;;4.88;0.68;;;;;;;;;;4916017;28;20083;-63
2021/10/21 09:53:44;;;;;;;8.00;0.73;;;;;;;;;;4912472;29;20052;-63
2021/10/21 09:56:29;;;;;;;6.30;0.98;;;;;;;;;;4911885;28;20434;-64
2021/10/21 09:59:14;;;;;;;2.85;0.40;;;;;;;;;;4912605;29;20506;-63
2021/10/21 10:02:05;;;;;;;5.35;0.50;;;;;;;;;;4912354;29;20084;-63
2021/10/21 10:04:54;;;;;;;4.70;0.50;;;;;;;;;;4912161;29;20461;-63
2021/10/21 10:07:39;;;;;;;2.17;0.40;;;;;;;;;;4928808;29;20048;-63
2021/10/21 10:10:24;;;;;;;5.85;0.60;;;;;;;;;;4931476;29;20445;-64
2021/10/21 10:13:09;;;;;;;2.47;0.28;;;;;;;;;;4931394;29;20126;-63
2021/10/21 10:15:55;;;;;;;6.20;0.90;;;;;;;;;;4931363;29;20561;-63
2021/10/21 10:18:44;;;;;;;9.05;0.98;;;;;;;;;;4931507;29;20083;-63
2021/10/21 10:21:32;;;;;;;5.30;0.88;;;;;;;;;;4931635;29;20056;-63
2021/10/21 10:24:17;;;;;;;4.82;0.40;;;;;;;;;;4931331;29;20064;-63
2021/10/21 10:27:03;;;;;;;3.70;0.25;;;;;;;;;;4930427;29;20055;-63
2021/10/21 10:29:48;;;;;;;3.53;0.52;;;;;;;;;;4931357;29;20422;-63
2021/10/21 10:32:43;;;;;;;1.33;0.43;;;;;;;;;;4931403;29;20052;-63
2021/10/21 10:35:32;;;;;;;3.97;0.30;;;;;;;;;;4933814;29;20047;-64
2021/10/21 10:38:17;;;;;;;5.10;0.45;;;;;;;;;;4934837;29;20055;-62
2021/10/21 10:41:02;;;;;;;3.50;1.17;;;;;;;;;;4933657;29;20051;-64
2021/10/21 10:43:47;;;;;;;4.05;0.30;;;;;;;;;;4934196;29;20063;-63
2021/10/21 10:46:48;;;;;;;4.90;0.25;;;;;;;;;;4934654;29;20059;-64
2021/10/21 10:49:42;;;;;;;3.03;0.30;;;;;;;;;;4934516;29;20102;-64
2021/10/21 10:52:27;;;;;;;1.45;0.30;;;;;;;;;;4934602;29;20134;-63
2021/10/21 10:55:16;;;;;;;2.33;0.60;;;;;;;;;;4933368;29;20079;-62
2021/10/21 10:58:02;;;;;;;4.28;0.60;;;;;;;;;;4934467;29;20047;-64
2021/10/21 11:00:48;;;;;;;4.97;0.50;;;;;;;;;;4934221;29;20506;-64
2021/10/21 11:03:38;;;;;;;3.58;0.32;;;;;;;;;;4933942;29;20406;-64
2021/10/21 11:06:26;;;;;;;3.63;0.52;;;;;;;;;;4934342;29;20138;-63
2021/10/21 11:09:11;;;;;;;5.82;0.60;;;;;;;;;;4921640;29;20399;-64
2021/10/21 11:12:00;;;;;;;7.22;0.65;;;;;;;;;;4914277;28;20052;-64
2021/10/21 11:14:48;;;;;;;4.78;0.60;;;;;;;;;;4914963;29;20083;-71
2021/10/21 11:17:43;;;;;;;3.40;0.85;;;;;;;;;;4914369;28;20127;-72
2021/10/21 11:20:28;;;;;;;5.57;0.95;;;;;;;;;;4913454;29;20064;-64
2021/10/21 11:23:29;;;;;;;5.13;0.90;;;;;;;;;;4914996;29;20048;-64
2021/10/21 11:26:23;;;;;;;3.10;0.70;;;;;;;;;;4915098;29;20053;-64
2021/10/21 11:29:09;;;;;;;7.82;0.70;;;;;;;;;;4914850;29;20503;-64
2021/10/21 11:31:54;;;;;;;6.65;1.08;;;;;;;;;;4915055;29;20060;-64
2021/10/21 11:34:39;;;;;;;5.47;1.00;;;;;;;;;;4913813;28;20060;-64
2021/10/21 11:37:38;;;;;;;6.88;0.93;;;;;;;;;;4914864;29;20064;-64
2021/10/21 11:40:55;;;;;;;5.78;0.93;;;;;;;;;;4914817;29;20110;-64
2021/10/21 11:43:41;;;;;;;4.90;1.08;;;;;;;;;;4946403;28;20427;-64
2021/10/21 11:46:27;;;;;;;11.00;1.08;;;;;;;;;;4913658;29;20415;-64
2021/10/21 11:49:12;;;;;;;7.82;0.98;;;;;;;;;;4913617;28;20519;-66
2021/10/21 11:52:04;;;;;;;9.35;1.15;;;;;;;;;;4914454;29;20446;-66
2021/10/21 11:54:49;;;;;;;8.25;0.90;;;;;;;;;;4914530;29;20107;-65
2021/10/21 11:57:35;;;;;;;12.50;1.83;;;;;;;;;;4914679;29;20056;-65
2021/10/21 12:00:24;;;;;;;6.45;1.60;;;;;;;;;;4914447;29;20514;-66
2021/10/21 12:03:09;;;;;;;12.52;1.48;;;;;;;;;;4914425;29;20082;-65
2021/10/21 12:05:54;;;;;;;10.93;2.33;;;;;;;;;;4914530;29;20060;-64
2021/10/21 12:08:40;;;;;;;11.00;1.20;;;;;;;;;;4914426;29;20075;-66
2021/10/21 12:11:26;;;;;;;9.85;1.00;;;;;;;;;;4914240;29;20052;-66
2021/10/21 12:14:11;;;;;;;7.07;0.98;;;;;;;;;;4914112;29;20446;-64
2021/10/21 12:16:56;;;;;;;8.23;1.13;;;;;;;;;;4914320;29;20053;-64
2021/10/21 12:19:43;;;;;;;9.80;0.95;;;;;;;;;;4914161;29;20056;-64
2021/10/21 12:22:30;;;;;;;6.30;0.82;;;;;;;;;;4914323;29;20056;-64
2021/10/21 12:25:30;;;;;;;12.13;1.30;;;;;;;;;;4913858;29;20052;-64
2021/10/21 12:28:16;;;;;;;7.25;0.82;;;;;;;;;;4914241;29;20052;-64
2021/10/21 12:31:01;;;;;;;6.20;0.77;;;;;;;;;;4914017;29;20095;-64
2021/10/21 12:33:50;;;;;;;5.03;1.35;;;;;;;;;;4912754;28;20048;-64
2021/10/21 12:36:35;;;;;;;3.72;0.50;;;;;;;;;;4914131;29;20056;-63
2021/10/21 12:39:27;;;;;;;7.40;1.27;;;;;;;;;;4914263;29;20119;-64
2021/10/21 12:42:21;;;;;;;9.93;0.95;;;;;;;;;;4913881;29;20095;-64
2021/10/21 12:45:07;;;;;;;4.20;0.73;;;;;;;;;;4913737;29;20052;-64
2021/10/21 12:47:52;;;;;;;3.97;0.90;;;;;;;;;;4913864;29;20056;-64
2021/10/21 12:50:37;;;;;;;10.00;0.85;;;;;;;;;;4913541;29;20068;-64
2021/10/21 12:53:23;;;;;;;6.88;1.02;;;;;;;;;;4913821;29;20422;-64
2021/10/21 12:56:12;;;;;;;7.25;0.70;;;;;;;;;;4913751;29;20056;-64
2021/10/21 12:59:00;;;;;;;7.28;0.73;;;;;;;;;;4913685;29;20052;-64
2021/10/21 13:01:55;;;;;;;6.07;0.82;;;;;;;;;;4913726;29;20052;-64
2021/10/21 13:04:41;;;;;;;7.65;1.15;;;;;;;;;;4913406;29;20103;-64
2021/10/21 13:07:26;;;;;;;5.30;0.82;;;;;;;;;;4913432;29;20060;-64
2021/10/21 13:10:12;;;;;;;8.00;0.93;;;;;;;;;;4913515;29;20131;-64
2021/10/21 13:12:57;;;;;;;12.27;1.63;;;;;;;;;;4913469;29;20052;-64
2021/10/21 13:15:42;;;;;;;7.13;1.50;;;;;;;;;;4913070;29;20060;-64
2021/10/21 13:18:28;;;;;;;7.90;1.17;;;;;;;;;;4913510;29;20060;-64
2021/10/21 13:21:13;;;;;;;15.30;1.73;;;;;;;;;;4913256;29;20056;-64
2021/10/21 13:23:58;;;;;;;10.55;1.70;;;;;;;;;;4912951;29;20418;-64
2021/10/21 13:26:43;;;;;;;11.43;2.38;;;;;;;;;;4913450;29;20048;-64
2021/10/21 13:29:29;;;;;;;10.02;1.63;;;;;;;;;;4913117;29;20466;-64
2021/10/21 13:32:14;;;;;;;14.00;1.58;;;;;;;;;;4913083;29;20138;-64
2021/10/21 13:34:59;;;;;;;12.50;2.63;;;;;;;;;;4913054;29;20055;-64
2021/10/21 13:37:45;;;;;;;13.90;2.30;;;;;;;;;;4913209;29;20478;-64
2021/10/21 13:40:31;;;;;;;12.25;2.35;;;;;;;;;;4913022;29;20418;-64
2021/10/21 13:43:16;;;;;;;12.00;2.63;;;;;;;;;;4913253;29;20446;-64
2021/10/21 13:46:02;;;;;;;17.70;2.40;;;;;;;;;;4913129;29;20147;-64
2021/10/21 13:48:47;;;;;;;18.42;2.63;;;;;;;;;;4913042;29;20426;-64
2021/10/21 13:51:32;;;;;;;16.85;2.90;;;;;;;;;;4912779;29;20056;-64
2021/10/21 13:54:17;;;;;;;12.73;2.55;;;;;;;;;;4912686;29;20056;-64
2021/10/21 13:57:04;;;;;;;19.23;3.53;;;;;;;;;;4912918;29;20052;-64
2021/10/21 13:59:51;;;;;;;14.77;2.90;;;;;;;;;;4913000;29;20059;-64
2021/10/21 14:02:36;;;;;;;16.38;3.83;;;;;;;;;;4912961;29;20127;-64
2021/10/21 14:05:22;;;;;;;13.13;3.03;;;;;;;;;;4912658;29;20056;-66
2021/10/21 14:08:08;;;;;;;18.88;3.70;;;;;;;;;;4913003;29;20056;-65
2021/10/21 14:10:53;;;;;;;15.60;3.22;;;;;;;;;;4915546;29;20052;-69
2021/10/21 14:13:38;;;;;;;18.42;3.58;;;;;;;;;;4901266;29;20056;-71
2021/10/21 14:16:23;;;;;;;14.05;2.80;;;;;;;;;;4914529;29;20056;-71
2021/10/21 14:19:09;;;;;;;15.50;3.78;;;;;;;;;;4906613;28;20387;-69
2021/10/21 14:21:54;;;;;;;18.58;4.13;;;;;;;;;;4909623;29;20123;-73
2021/10/21 14:24:39;;;;;;;17.27;2.65;;;;;;;;;;4910085;29;20419;-71
2021/10/21 14:27:24;;;;;;;16.70;2.58;;;;;;;;;;4924632;29;20044;-70
2021/10/21 14:30:10;;;;;;;21.10;3.20;;;;;;;;;;4924542;29;20063;-70
2021/10/21 14:32:55;;;;;;;18.15;3.00;;;;;;;;;;4922925;29;20060;-70
2021/10/21 14:35:40;;;;;;;19.20;4.50;;;;;;;;;;4933221;29;20055;-71
2021/10/21 14:38:26;;;;;;;15.15;3.38;;;;;;;;;;4920215;29;20059;-71
2021/10/21 14:41:11;;;;;;;16.70;2.50;;;;;;;;;;4933285;29;20055;-71
2021/10/21 14:43:58;;;;;;;16.38;2.92;;;;;;;;;;4933159;29;20062;-71
2021/10/21 14:46:45;;;;;;;11.38;2.47;;;;;;;;;;4933595;29;20066;-71
2021/10/21 14:49:32;;;;;;;17.25;3.42;;;;;;;;;;4933229;29;20064;-71
2021/10/21 14:52:17;;;;;;;10.18;1.63;;;;;;;;;;5027100;23;20504;-65
2021/10/21 14:55:03;;;;;;;10.68;2.00;;;;;;;;;;5017466;28;20050;-66
2021/10/21 14:57:48;;;;;;;13.82;2.45;;;;;;;;;;5025420;28;20046;-66
2021/10/21 15:00:34;;;;;;;14.32;2.28;;;;;;;;;;5021864;28;20042;-65
2021/10/21 15:03:19;;;;;;;12.52;1.92;;;;;;;;;;5023236;28;20054;-65
2021/10/21 15:09:22;;;;;;;14.60;2.78;;;;;;;;;;5017529;28;20053;-65
2021/10/21 15:24:23;;;;;;;8.18;1.38;;;;;;;;;;5033859;28;20057;-65
2021/10/21 15:27:09;;;;;;;15.65;2.88;;;;;;;;;;5033958;28;20128;-65
2021/10/21 15:29:54;;;;;;;8.18;1.15;;;;;;;;;;5034216;28;20415;-65
2021/10/21 15:32:40;;;;;;;13.25;2.00;;;;;;;;;;5033991;28;20057;-65
2021/10/21 15:35:25;;;;;;;10.23;1.83;;;;;;;;;;5033597;28;20057;-65
2021/10/21 15:38:14;;;;;;;10.68;1.92;;;;;;;;;;5034038;28;20061;-66
2021/10/21 15:40:59;;;;;;;9.15;1.40;;;;;;;;;;5033866;28;20412;-65
2021/10/21 15:43:48;;;;;;;12.90;1.90;;;;;;;;;;5033558;28;20052;-65
2021/10/21 15:46:34;;;;;;;11.40;2.28;;;;;;;;;;5033868;28;20049;-65
2021/10/21 16:13:46;;;;;;;9.52;1.92;;;;;;;;;;5032886;28;20058;-68
2021/10/21 16:16:32;;;;;;;11.57;1.92;;;;;;;;;;5033262;28;20057;-68
2021/10/21 16:19:17;;;;;;;12.93;2.05;;;;;;;;;;5018058;28;20053;-68
2021/10/21 16:22:13;;;;;;;9.50;1.33;;;;;;;;;;5013110;28;20054;-68
2021/10/21 16:27:50;;;;;;;8.48;1.60;;;;;;;;;;5013054;28;20132;-68
2021/10/21 16:30:36;;;;;;;7.18;1.35;;;;;;;;;;5013403;28;20054;-68
2021/10/21 16:33:21;;;;;;;11.15;1.63;;;;;;;;;;5012332;28;20054;-68
2021/10/21 16:36:06;;;;;;;7.65;1.67;;;;;;;;;;5012960;28;20050;-68
2021/10/21 16:38:52;;;;;;;12.20;2.08;;;;;;;;;;5013123;28;20050;-67
2021/10/21 16:41:40;;;;;;;12.43;1.85;;;;;;;;;;5012949;28;20046;-68
2021/10/21 16:44:25;;;;;;;11.82;2.58;;;;;;;;;;5012435;28;20110;-67
2021/10/21 16:47:11;;;;;;;7.85;1.25;;;;;;;;;;5012665;28;20057;-68
2021/10/21 16:49:58;;;;;;;7.55;1.95;;;;;;;;;;5012392;28;20050;-67
2021/10/21 16:52:43;;;;;;;9.75;1.90;;;;;;;;;;5012267;28;20053;-68
2021/10/21 16:55:28;;;;;;;5.05;1.10;;;;;;;;;;5012144;28;20218;-68
2021/10/21 16:58:14;;;;;;;8.90;2.25;;;;;;;;;;5012251;28;20058;-67
2021/10/21 17:00:59;;;;;;;8.82;1.52;;;;;;;;;;5012165;28;20049;-68
2021/10/21 17:03:44;;;;;;;5.40;1.90;;;;;;;;;;5011962;28;20054;-68
2021/10/21 17:06:30;;;;;;;14.80;2.10;;;;;;;;;;5012317;28;20054;-68